Weather at Munich Airport

Public forecast

Using degrees Celsius for public forecast. Weather courtesy of forecast.io.

Current aviation weather report (METAR) for Munich Airport

Retrieved 2021/10/22 06:20 UTC (37 minutes ago):

EDDM 220620Z 27004KT 9999 -DZ FEW008 OVC035 06/04 Q1017 NOSIG

Aviation forecast (TAF) for Munich Airport

Retrieved 2021/10/22 06:27 UTC (30 minutes ago):

TAF EDDM 220500Z 2206/2312 27005KT 9999 SCT015 BKN030 PROB30 TEMPO 2206/2208 BKN012 BECMG 2209/2211 27010KT BECMG 2215/2217 25005KT